LDRILKPR

Guest
Details From LDRI - RIJEKA
To LKPR - Praha - Ruzyne
Flight Number -
Tags decoded
Created
Modified
Stats Distance 294 nm / 544 km
Max Altitude 0 ft / 0 m
Waypoints 2
Social Downloads 0
Likes 0
Share VATSIM

Download

Looking for another format? Having issues loading an existing format? Contact us
Advertisement - Login to hide

Notes

Requested: LDRI LKPR

Route

LDRI LKPR

ID Type Via Altitude Latitude Longitude Leg Dist Tot Dist Heading (true) Name
O LDRI APT - 0 ft / 0 m 45.21663˚ 14.57081˚ - 0 nm - RIJEKA
O LKPR APT - 0 ft / 0 m 50.10114˚ 14.26296˚ 293 nm 293 nm 358° / 357° Praha - Ruzyne

Altitude Profile

Weather

Temperature
Clouds and Precipitation
Forecast for 2017-02-27 18:00 UTC. Updated 22 minutes ago
Winds

LDRI

Details ICAO LDRI (RJK)
Name RIJEKA
Region Croatia
Timezone Europe/Zagreb (UTC+1.0)
Stats Elevation 278 ft / 85 m (AMSL)
Location 45.216635° 14.570813°
Runways 1
Magnetic Variation 3.534° E

METAR

LDRI 271330Z 12008KT 9999 BKN050 11/M00 Q1016

Decode

TAF

TAF LDRI 271125Z 2712/2812 VRB02KT 9999 SCT050 TX12/2713Z TN06/2805Z= TAF LEBB 271100Z 2712/2812 22012KT 9999 FEW030 TX19/2714Z TN07/2805Z TEMPO 2712/2715 22018G30KT BECMG 2713/2716 28010KT PROB40 TEMPO 2715/2718 30015G25KT 3000 RA BKN014 PROB40 TEMPO 2803/2809 23015G30KT PROB40 TEMPO 2809/2812 29015G30KT 3000 RA SHRA SCT020TCU

Decode

Departure Runways

ID Width Length Bearing (true) Bearing (mag) Surface Threshold Offset Overrun Length
14 148 ft / 45 m 8,161 ft / 2,488 m 143.77° 140.24° Asphalt 0 ft / 0 m 0 ft / 0 m
32 148 ft / 45 m 8,161 ft / 2,488 m 323.78° 320.25° Asphalt 0 ft / 0 m 0 ft / 0 m

LKPR

Details ICAO LKPR (PRG)
Name Praha - Ruzyne
Region Czech Republic
Timezone Europe/Prague (UTC+1.0)
Stats Elevation 1,246 ft / 380 m (AMSL)
Location 50.101144° 14.262963°
Runways 3
Magnetic Variation 3.762° E

METAR

LKPR 271330Z 14008KT CAVOK 13/M02 Q1005 NOSIG

Decode

TAF

TAF LKPR 271100Z 2712/2818 20010KT CAVOK BECMG 2809/2811 23014KT 9999 BKN033 TEMPO 2811/2818 20014G24KT 8000 -RA BKN025 PROB30 TEMPO 2816/2818 5000 RA BKN013

Decode

Destination Runways

ID Width Length Bearing (true) Bearing (mag) Surface Threshold Offset Overrun Length
04 197 ft / 60 m 6,932 ft / 2,113 m 36.80° 33.04° Asphalt 0 ft / 0 m 0 ft / 0 m
06 148 ft / 45 m 12,160 ft / 3,706 m 64.92° 61.16° Concrete 0 ft / 0 m 0 ft / 0 m
12 148 ft / 45 m 10,622 ft / 3,238 m 126.99° 123.23° Concrete 0 ft / 0 m 0 ft / 0 m
22 197 ft / 60 m 6,932 ft / 2,113 m 216.81° 213.05° Asphalt 0 ft / 0 m 591 ft / 180 m
24 148 ft / 45 m 12,160 ft / 3,706 m 244.96° 241.20° Concrete 0 ft / 0 m 0 ft / 0 m
30 148 ft / 45 m 10,622 ft / 3,238 m 307.01° 303.25° Concrete 0 ft / 0 m 0 ft / 0 m

Approach Navaids

Runway Type Ident Frequency Range Bearing (true) Bearing (mag) Slope Elevation
06 Localiser PH 111.15 MHz 18 nm / 33 km 64.94° 61.18° - 1,202 ft / 366 m (AMSL)
06 Glidescope PH 111.15 MHz 10 nm / 19 km 64.94° 61.18° 3.00° 1,202 ft / 366 m (AMSL)
06 DME PH 111.15 MHz 18 nm / 33 km - - - 1,250 ft / 381 m (AMSL)
12 Localiser PA 109.95 MHz 18 nm / 33 km 127.00° 123.24° - 1,246 ft / 380 m (AMSL)
12 Glidescope PA 109.95 MHz 10 nm / 19 km 127.00° 123.24° 3.00° 1,246 ft / 380 m (AMSL)
12 DME PA 109.95 MHz 18 nm / 33 km - - - 1,246 ft / 380 m (AMSL)
24 Localiser PR 109.10 MHz 18 nm / 33 km 244.95° 241.18° - 1,156 ft / 352 m (AMSL)
24 Glidescope PR 109.10 MHz 10 nm / 19 km 244.94° 241.18° 3.00° 1,156 ft / 352 m (AMSL)
24 DME PR 109.10 MHz 18 nm / 33 km - - - 1,175 ft / 358 m (AMSL)
30 Localiser PG 109.50 MHz 18 nm / 33 km 307.08° 303.32° - 1,234 ft / 376 m (AMSL)
30 Glidescope PG 109.50 MHz 10 nm / 19 km 307.00° 303.24° 3.00° 1,234 ft / 376 m (AMSL)
30 DME PG 109.50 MHz 18 nm / 33 km - - - 1,250 ft / 381 m (AMSL)

Popular Alternatives